createdAt,value
2019-01-15T00:00:52.172Z,16.60
2019-01-15T00:03:22.199Z,21.63
2019-01-15T00:05:51.993Z,15.13
2019-01-15T00:08:21.664Z,13.70
2019-01-15T00:10:51.330Z,20.37
2019-01-15T00:13:20.938Z,17.30
2019-01-15T00:15:50.516Z,13.00
2019-01-15T00:18:20.451Z,16.00
2019-01-15T00:20:50.159Z,20.13
2019-01-15T00:23:19.855Z,18.37
2019-01-15T00:25:49.647Z,14.20
2019-01-15T00:28:19.256Z,14.10
2019-01-15T00:30:48.988Z,16.87
2019-01-15T00:33:18.780Z,11.93
2019-01-15T00:35:48.502Z,10.70
2019-01-15T00:38:18.345Z,15.50
2019-01-15T00:40:48.123Z,14.90
2019-01-15T00:43:17.799Z,8.20
2019-01-15T00:45:47.818Z,8.80
2019-01-15T00:48:17.427Z,14.63
2019-01-15T00:50:47.203Z,12.90
2019-01-15T00:53:16.826Z,21.27
2019-01-15T00:55:46.564Z,12.60
2019-01-15T00:58:16.249Z,15.57
2019-01-15T01:00:46.006Z,12.90
2019-01-15T01:03:15.575Z,17.53
2019-01-15T01:05:45.762Z,19.67
2019-01-15T01:08:15.561Z,21.17
2019-01-15T01:10:45.341Z,13.03
2019-01-15T01:13:14.931Z,14.37
2019-01-15T01:15:44.718Z,15.47
2019-01-15T01:18:14.420Z,14.93
2019-01-15T01:20:45.101Z,20.60
2019-01-15T01:23:15.196Z,20.00
2019-01-15T01:25:45.075Z,21.37
2019-01-15T01:28:14.707Z,26.20
2019-01-15T01:30:44.559Z,33.00
2019-01-15T01:33:14.461Z,28.50
2019-01-15T01:35:45.210Z,24.37
2019-01-15T01:38:14.924Z,21.87
2019-01-15T01:40:44.581Z,23.97
2019-01-15T01:43:14.478Z,15.53
2019-01-15T01:45:44.212Z,19.87
2019-01-15T01:48:13.761Z,22.70
2019-01-15T01:50:43.610Z,33.10
2019-01-15T01:53:13.255Z,17.93
2019-01-15T01:55:42.991Z,16.93
2019-01-15T01:58:13.016Z,19.10
2019-01-15T02:00:42.691Z,16.33
2019-01-15T02:03:12.386Z,21.27
2019-01-15T02:05:42.245Z,26.33
2019-01-15T02:08:11.931Z,21.47
2019-01-15T02:10:41.782Z,15.00
2019-01-15T02:13:11.386Z,23.07
2019-01-15T02:15:41.564Z,19.27
2019-01-15T02:18:11.553Z,20.37
2019-01-15T02:20:41.200Z,32.37
2019-01-15T02:23:11.119Z,17.23
2019-01-15T02:25:40.908Z,24.37
2019-01-15T02:28:10.672Z,20.53
2019-01-15T02:30:40.764Z,19.67
2019-01-15T02:33:10.868Z,14.50
2019-01-15T02:35:40.503Z,19.87
2019-01-15T02:38:10.418Z,25.73
2019-01-15T02:40:40.115Z,10.50
2019-01-15T02:43:12.352Z,20.40
2019-01-15T02:45:42.054Z,11.07
2019-01-15T02:48:12.856Z,19.93
2019-01-15T02:50:42.931Z,18.07
2019-01-15T02:54:03.170Z,19.73
2019-01-15T02:56:33.015Z,17.43
2019-01-15T02:59:09.220Z,13.30
2019-01-15T03:01:38.890Z,15.30
2019-01-15T03:04:08.645Z,25.80
2019-01-15T03:06:38.363Z,19.27
2019-01-15T03:09:08.370Z,15.63
2019-01-15T03:11:38.750Z,19.53
2019-01-15T03:14:09.487Z,11.50
2019-01-15T03:16:40.297Z,16.70
2019-01-15T03:19:11.003Z,21.10
2019-01-15T03:21:41.250Z,19.30
2019-01-15T03:24:11.327Z,15.20
2019-01-15T03:26:40.992Z,15.23
2019-01-15T03:29:10.883Z,13.03
2019-01-15T03:31:41.255Z,16.07
2019-01-15T03:34:11.132Z,17.83
2019-01-15T03:36:40.866Z,14.03
2019-01-15T03:39:10.878Z,16.07
2019-01-15T03:41:40.876Z,17.63
2019-01-15T03:44:10.873Z,25.07
2019-01-15T03:46:41.236Z,17.70
2019-01-15T03:49:11.699Z,17.37
2019-01-15T03:51:41.593Z,17.23
2019-01-15T03:54:11.500Z,24.10
2019-01-15T03:56:41.106Z,14.13
2019-01-15T03:59:11.287Z,18.20
2019-01-15T04:01:41.077Z,21.57
2019-01-15T04:04:11.793Z,15.87
2019-01-15T04:06:41.931Z,17.03
2019-01-15T04:09:12.096Z,17.60
2019-01-15T04:11:41.826Z,15.23
2019-01-15T04:14:11.529Z,14.90
2019-01-15T04:16:41.258Z,16.93
2019-01-15T04:19:11.232Z,13.83
2019-01-15T04:21:41.278Z,17.47
2019-01-15T04:24:11.097Z,16.23
2019-01-15T04:26:41.509Z,23.00
2019-01-15T04:29:11.759Z,18.63
2019-01-15T04:31:41.794Z,11.83
2019-01-15T04:34:15.228Z,17.60
2019-01-15T04:36:45.784Z,19.33
2019-01-15T04:39:15.564Z,29.57
2019-01-15T04:41:45.335Z,14.63
2019-01-15T04:44:16.001Z,21.93
2019-01-15T04:46:45.783Z,15.03
2019-01-15T04:49:17.998Z,15.53
2019-01-15T04:51:48.412Z,14.67
2019-01-15T04:54:18.129Z,24.23
2019-01-15T04:56:48.017Z,17.40
2019-01-15T04:59:19.785Z,22.00
2019-01-15T05:01:49.736Z,19.67
2019-01-15T05:04:19.765Z,24.13
2019-01-15T05:06:49.715Z,20.10
2019-01-15T05:09:20.145Z,16.93
2019-01-15T05:11:50.343Z,14.90
2019-01-15T05:14:20.621Z,16.10
2019-01-15T05:16:50.276Z,17.33
2019-01-15T05:19:20.229Z,10.03
2019-01-15T05:21:50.094Z,19.33
2019-01-15T05:24:20.240Z,11.17
2019-01-15T05:26:50.457Z,15.20
2019-01-15T05:29:23.191Z,14.83
2019-01-15T05:31:53.530Z,15.43
2019-01-15T05:34:23.710Z,16.90
2019-01-15T05:36:53.795Z,17.30
2019-01-15T05:39:23.580Z,25.20
2019-01-15T05:41:54.228Z,21.93
2019-01-15T05:44:24.308Z,17.93
2019-01-15T05:46:54.337Z,16.07
2019-01-15T05:49:24.758Z,18.53
2019-01-15T05:51:56.752Z,19.40
2019-01-15T05:54:26.909Z,11.90
2019-01-15T05:56:57.679Z,15.67
2019-01-15T05:59:30.896Z,15.37
2019-01-15T06:02:00.964Z,19.80
2019-01-15T06:04:31.113Z,22.23
2019-01-15T06:07:00.900Z,18.90
2019-01-15T06:09:31.017Z,19.17
2019-01-15T06:12:01.232Z,16.57
2019-01-15T06:14:31.306Z,22.77
2019-01-15T06:17:01.860Z,16.20
2019-01-15T06:19:32.497Z,28.47
2019-01-15T06:22:02.559Z,15.77
2019-01-15T06:24:34.177Z,29.33
2019-01-15T06:27:06.298Z,25.27
2019-01-15T06:29:36.641Z,33.57
2019-01-15T06:32:06.336Z,18.33
2019-01-15T06:34:35.950Z,26.87
2019-01-15T06:37:05.561Z,27.10
2019-01-15T06:39:35.135Z,30.07
2019-01-15T06:42:04.999Z,33.97
2019-01-15T06:44:37.304Z,35.67
2019-01-15T06:47:08.617Z,28.73
2019-01-15T06:49:38.364Z,34.07
2019-01-15T06:52:08.670Z,31.10
2019-01-15T06:54:38.341Z,31.67
2019-01-15T06:57:08.251Z,31.53
2019-01-15T06:59:46.898Z,27.73
2019-01-15T07:02:19.762Z,37.50
2019-01-15T07:04:52.940Z,34.00
2019-01-15T07:07:22.555Z,29.10
2019-01-15T07:09:52.059Z,31.93
2019-01-15T07:12:21.608Z,29.40
2019-01-15T07:14:51.158Z,37.87
2019-01-15T07:17:20.778Z,40.27
2019-01-15T07:19:50.608Z,38.13
2019-01-15T07:22:20.202Z,38.07
2019-01-15T07:24:49.734Z,41.80
2019-01-15T07:27:19.326Z,34.90
2019-01-15T07:29:48.880Z,49.80
2019-01-15T07:32:18.429Z,36.27
2019-01-15T07:34:48.141Z,24.40
2019-01-15T07:37:17.737Z,35.13
2019-01-15T07:39:47.613Z,35.90
2019-01-15T07:42:17.257Z,33.37
2019-01-15T07:44:46.968Z,36.67
2019-01-15T07:47:25.171Z,41.57
2019-01-15T07:49:54.679Z,27.27
2019-01-15T07:52:24.390Z,35.20
2019-01-15T07:54:53.842Z,41.23
2019-01-15T07:57:23.458Z,30.83
2019-01-15T07:59:53.054Z,31.80
2019-01-15T08:02:22.608Z,35.27
2019-01-15T08:04:52.245Z,42.47
2019-01-15T08:07:21.782Z,42.80
2019-01-15T08:09:51.233Z,39.83
2019-01-15T08:12:20.695Z,29.60
2019-01-15T08:14:50.185Z,44.53
2019-01-15T08:17:20.077Z,36.47
2019-01-15T08:19:49.551Z,49.90
2019-01-15T08:22:19.026Z,55.70
2019-01-15T08:24:48.516Z,29.27
2019-01-15T08:27:18.048Z,34.40
2019-01-15T08:29:47.605Z,26.90
2019-01-15T08:32:17.072Z,36.90
2019-01-15T08:34:46.578Z,40.47
2019-01-15T08:37:16.076Z,35.97
2019-01-15T08:39:45.557Z,51.50
2019-01-15T08:42:15.036Z,36.57
2019-01-15T08:44:44.655Z,30.50
2019-01-15T08:47:14.257Z,29.33
2019-01-15T08:49:43.759Z,33.17
2019-01-15T08:52:13.354Z,39.63
2019-01-15T08:54:42.847Z,45.37
2019-01-15T08:57:12.317Z,39.73
2019-01-15T08:59:41.881Z,25.67
2019-01-15T09:02:11.391Z,32.40
2019-01-15T09:04:40.927Z,31.67
2019-01-15T09:07:10.400Z,31.57
2019-01-15T09:09:39.913Z,29.67
2019-01-15T09:12:09.415Z,33.43
2019-01-15T09:14:40.038Z,36.50
2019-01-15T09:17:11.125Z,29.17
2019-01-15T09:19:40.747Z,33.00
2019-01-15T09:22:10.601Z,29.87
2019-01-15T09:24:40.146Z,20.97
2019-01-15T09:27:09.729Z,28.10
2019-01-15T09:29:39.249Z,34.37
2019-01-15T09:32:08.831Z,32.57
2019-01-15T09:34:38.452Z,39.77
2019-01-15T09:37:09.573Z,50.83
2019-01-15T09:39:39.241Z,34.70
2019-01-15T09:42:08.945Z,34.80
2019-01-15T09:44:38.679Z,33.60
2019-01-15T09:47:08.251Z,22.70
2019-01-15T09:49:37.805Z,30.07
2019-01-15T09:52:12.959Z,40.47
2019-01-15T09:54:38.594Z,37.63
2019-01-15T09:57:08.127Z,25.10
2019-01-15T09:59:37.723Z,33.90
2019-01-15T10:02:07.342Z,39.27
2019-01-15T10:04:36.863Z,27.63
2019-01-15T10:07:06.512Z,37.07
2019-01-15T10:09:36.245Z,29.17
2019-01-15T10:12:05.742Z,31.10
2019-01-15T10:14:41.222Z,32.50
2019-01-15T10:17:06.489Z,29.63
2019-01-15T10:19:36.149Z,28.53
2019-01-15T10:22:05.867Z,27.03
2019-01-15T10:24:35.785Z,32.80
2019-01-15T10:27:05.705Z,27.50
2019-01-15T10:29:35.774Z,33.77
2019-01-15T10:32:31.519Z,28.87
2019-01-15T10:35:04.497Z,22.33
2019-01-15T10:37:34.097Z,35.70
2019-01-15T10:40:05.020Z,23.20
2019-01-15T10:42:34.591Z,24.13
2019-01-15T10:45:06.268Z,25.27
2019-01-15T10:47:35.840Z,30.93
2019-01-15T10:50:11.347Z,21.37
2019-01-15T10:52:40.939Z,19.27
2019-01-15T10:55:10.548Z,19.00
2019-01-15T10:57:40.166Z,15.83
2019-01-15T11:00:13.053Z,18.70
2019-01-15T11:02:42.695Z,20.30
2019-01-15T11:05:12.582Z,23.00
2019-01-15T11:07:42.127Z,18.53
2019-01-15T11:10:14.912Z,17.73
2019-01-15T11:12:44.428Z,16.80
2019-01-15T11:15:14.059Z,20.70
2019-01-15T11:17:43.682Z,24.47
2019-01-15T11:20:16.422Z,21.37
2019-01-15T11:22:46.073Z,17.80
2019-01-15T11:25:15.666Z,14.83
2019-01-15T11:27:45.275Z,23.17
2019-01-15T11:30:15.397Z,18.50
2019-01-15T11:32:44.914Z,25.20
2019-01-15T11:35:14.582Z,18.90
2019-01-15T11:37:44.276Z,23.17
2019-01-15T11:40:15.682Z,21.67
2019-01-15T11:42:45.223Z,14.73
2019-01-15T11:45:21.161Z,12.40
2019-01-15T11:47:51.187Z,18.30
2019-01-15T11:50:23.767Z,14.63
2019-01-15T11:52:53.655Z,14.90
2019-01-15T11:55:23.246Z,11.00
2019-01-15T11:57:52.808Z,15.30
2019-01-15T12:00:26.281Z,7.90
2019-01-15T12:03:00.693Z,14.67
2019-01-15T12:05:34.778Z,13.00
2019-01-15T12:08:11.552Z,9.90
2019-01-15T12:10:59.180Z,12.57
2019-01-15T12:13:32.907Z,9.37
2019-01-15T12:16:20.004Z,12.80
2019-01-15T12:19:07.376Z,13.87
2019-01-15T12:21:47.549Z,16.13
2019-01-15T12:24:21.749Z,17.67
2019-01-15T12:26:52.965Z,17.60
2019-01-15T12:29:29.878Z,9.13
2019-01-15T12:32:01.129Z,13.90
2019-01-15T12:34:48.346Z,19.23
2019-01-15T12:37:19.542Z,12.90
2019-01-15T12:40:07.524Z,11.60
2019-01-15T12:42:55.246Z,10.87
2019-01-15T12:45:27.490Z,11.17
2019-01-15T12:48:11.106Z,13.50
2019-01-15T12:50:58.191Z,14.77
2019-01-15T12:53:29.388Z,10.17
2019-01-15T12:56:15.598Z,14.07
2019-01-15T12:58:46.776Z,9.70
2019-01-15T13:01:17.944Z,6.53
2019-01-15T13:04:07.195Z,10.10
2019-01-15T13:06:38.317Z,9.00
2019-01-15T13:09:26.293Z,9.13
2019-01-15T13:12:09.189Z,10.73
2019-01-15T13:14:58.379Z,19.30
2019-01-15T13:17:29.727Z,18.60
2019-01-15T13:20:17.302Z,15.77
2019-01-15T13:22:54.186Z,15.57
2019-01-15T13:25:31.025Z,12.07
2019-01-15T13:28:08.307Z,14.73
2019-01-15T13:30:55.543Z,13.90
2019-01-15T13:33:26.804Z,28.23
2019-01-15T13:35:58.289Z,13.30
2019-01-15T13:38:29.573Z,17.87
2019-01-15T13:41:00.838Z,24.57
2019-01-15T13:43:34.878Z,19.43
2019-01-15T13:46:09.396Z,20.80
2019-01-15T13:48:40.645Z,24.73
2019-01-15T13:51:21.252Z,21.87
2019-01-15T13:54:08.647Z,15.17
2019-01-15T13:56:42.360Z,20.73
2019-01-15T13:59:13.696Z,16.23
2019-01-15T14:01:45.026Z,13.43
2019-01-15T14:04:16.337Z,10.60
2019-01-15T14:06:59.567Z,15.60
2019-01-15T14:09:37.117Z,13.80
2019-01-15T14:12:14.272Z,11.77
2019-01-15T14:15:00.791Z,18.50
2019-01-15T14:17:32.234Z,8.93
2019-01-15T14:20:06.892Z,12.87
2019-01-15T14:22:38.139Z,18.37
2019-01-15T14:25:25.989Z,13.10
2019-01-15T14:28:02.963Z,9.00
2019-01-15T14:30:40.051Z,14.43
2019-01-15T14:33:11.208Z,12.07
2019-01-15T14:35:54.610Z,15.43
2019-01-15T14:38:42.171Z,6.93
2019-01-15T14:41:22.667Z,15.97
2019-01-15T14:43:54.005Z,12.17
2019-01-15T14:46:37.639Z,13.63
2019-01-15T14:49:08.788Z,12.67
2019-01-15T14:51:39.937Z,16.27
2019-01-15T14:54:29.401Z,12.93
2019-01-15T14:57:06.652Z,12.13
2019-01-15T14:59:43.309Z,14.07
2019-01-15T15:02:14.641Z,12.00
2019-01-15T15:04:45.924Z,15.30
2019-01-15T15:07:25.731Z,11.43
2019-01-15T15:10:03.242Z,11.33
2019-01-15T15:12:40.595Z,17.47
2019-01-15T15:15:15.066Z,18.27
2019-01-15T15:17:49.265Z,19.60
2019-01-15T15:20:20.747Z,13.67
2019-01-15T15:23:03.788Z,15.53
2019-01-15T15:25:44.123Z,18.03
2019-01-15T15:28:31.402Z,23.20
2019-01-15T15:31:02.816Z,25.17
2019-01-15T15:33:37.258Z,20.10
2019-01-15T15:36:23.803Z,19.00
2019-01-15T15:39:03.736Z,24.17
2019-01-15T15:41:46.791Z,20.87
2019-01-15T15:44:20.765Z,29.87
2019-01-15T15:47:01.122Z,30.57
2019-01-15T15:49:32.379Z,27.87
2019-01-15T15:52:12.224Z,35.53
2019-01-15T15:54:49.696Z,30.70
2019-01-15T15:57:32.910Z,31.13
2019-01-15T16:00:04.319Z,32.43
2019-01-15T16:02:52.358Z,40.10
2019-01-15T16:05:26.432Z,34.00
2019-01-15T16:07:57.822Z,41.23
2019-01-15T16:10:28.980Z,30.03
2019-01-15T16:13:00.141Z,35.67
2019-01-15T16:15:40.702Z,31.37
2019-01-15T16:18:11.983Z,35.60
2019-01-15T16:20:46.214Z,29.83
2019-01-15T16:23:20.331Z,32.50
2019-01-15T16:25:51.553Z,37.20
2019-01-15T16:28:31.876Z,32.10
2019-01-15T16:31:18.111Z,37.90
2019-01-15T16:33:55.523Z,26.90
2019-01-15T16:36:32.556Z,36.20
2019-01-15T16:39:10.668Z,38.60
2019-01-15T16:41:42.007Z,34.00
2019-01-15T16:44:25.297Z,42.67
2019-01-15T16:47:13.110Z,38.57
2019-01-15T16:49:47.338Z,37.27
2019-01-15T16:52:35.340Z,42.77
2019-01-15T16:55:13.370Z,38.90
2019-01-15T16:57:53.656Z,41.57
2019-01-15T17:00:34.066Z,39.60
2019-01-15T17:03:11.184Z,37.00
2019-01-15T17:05:58.542Z,41.33
2019-01-15T17:08:41.660Z,41.13
2019-01-15T17:11:15.974Z,30.50
2019-01-15T17:13:47.396Z,32.20
2019-01-15T17:16:24.322Z,38.37
2019-01-15T17:19:01.565Z,43.67
2019-01-15T17:21:50.997Z,43.90
2019-01-15T17:24:32.278Z,49.13
2019-01-15T17:27:09.320Z,49.87
2019-01-15T17:29:53.037Z,40.27
2019-01-15T17:32:27.208Z,43.50
2019-01-15T17:35:07.730Z,49.93
2019-01-15T17:37:45.083Z,44.27
2019-01-15T17:40:32.631Z,56.50
2019-01-15T17:43:18.993Z,43.37
2019-01-15T17:45:50.678Z,49.90
2019-01-15T17:48:30.965Z,44.60
2019-01-15T17:51:08.249Z,49.43
2019-01-15T17:53:51.090Z,62.57
2019-01-15T17:56:25.346Z,47.97
2019-01-15T17:58:57.835Z,70.55
2019-01-15T18:01:47.370Z,50.30
2019-01-15T18:04:27.986Z,55.20
2019-01-15T18:07:11.323Z,49.97
2019-01-15T18:09:42.568Z,38.37
2019-01-15T18:12:14.056Z,46.83
2019-01-15T18:14:54.448Z,36.80
2019-01-15T18:17:25.793Z,39.47
2019-01-15T18:20:13.231Z,37.20
2019-01-15T18:23:02.610Z,51.20
2019-01-15T18:25:35.546Z,40.83
2019-01-15T18:28:18.612Z,41.80
2019-01-15T18:30:56.222Z,40.47
2019-01-15T18:33:46.200Z,33.37
2019-01-15T18:36:17.611Z,36.53
2019-01-15T18:39:07.775Z,36.80
2019-01-15T18:41:45.138Z,37.07
2019-01-15T18:44:19.257Z,35.33
2019-01-15T18:46:59.503Z,34.10
2019-01-15T18:49:30.636Z,40.13
2019-01-15T18:52:01.838Z,44.30
2019-01-15T18:54:33.068Z,52.83
2019-01-15T18:57:13.406Z,40.47
2019-01-15T18:59:44.566Z,48.93
2019-01-15T19:02:30.708Z,32.07
2019-01-15T19:05:01.843Z,29.27
2019-01-15T19:07:48.031Z,44.57
2019-01-15T19:10:22.063Z,46.73
2019-01-15T19:13:05.227Z,32.53
2019-01-15T19:15:55.193Z,29.17
2019-01-15T19:18:28.620Z,35.40
2019-01-15T19:21:11.758Z,32.83
2019-01-15T19:23:45.617Z,32.10
2019-01-15T19:26:16.809Z,34.67
2019-01-15T19:28:50.942Z,31.50
2019-01-15T19:31:22.088Z,26.93
2019-01-15T19:33:58.916Z,31.03
2019-01-15T19:36:30.191Z,18.77
2019-01-15T19:39:05.222Z,31.73
2019-01-15T19:41:42.276Z,29.00
2019-01-15T19:44:29.552Z,26.57
2019-01-15T19:47:10.675Z,20.03
2019-01-15T19:49:51.212Z,24.23
2019-01-15T19:52:31.492Z,22.87
2019-01-15T19:55:02.643Z,18.63
2019-01-15T19:57:33.768Z,26.03
2019-01-15T20:00:09.262Z,27.63
2019-01-15T20:02:52.660Z,23.00
2019-01-15T20:05:26.687Z,26.70
2019-01-15T20:07:57.827Z,17.03
2019-01-15T20:10:29.196Z,24.27
2019-01-15T20:13:18.368Z,21.00
2019-01-15T20:15:52.302Z,15.23
2019-01-15T20:18:26.134Z,30.20
2019-01-15T20:20:57.384Z,23.40
2019-01-15T20:23:43.726Z,23.37
2019-01-15T20:26:14.940Z,8.73
2019-01-15T20:29:02.455Z,11.57
2019-01-15T20:31:42.458Z,9.97
2019-01-15T20:34:13.767Z,11.87
2019-01-15T20:36:54.120Z,7.50
2019-01-15T20:39:31.124Z,9.00
2019-01-15T20:42:20.619Z,7.00
2019-01-15T20:45:08.160Z,7.93
2019-01-15T20:47:45.414Z,7.70
2019-01-15T20:50:25.715Z,5.73
2019-01-15T20:53:13.188Z,8.67
2019-01-15T20:55:44.612Z,10.83
2019-01-15T20:58:32.526Z,11.03
2019-01-15T21:01:15.443Z,7.17
2019-01-15T21:03:58.593Z,6.93
2019-01-15T21:06:32.524Z,9.00
2019-01-15T21:09:12.951Z,9.97
2019-01-15T21:12:02.302Z,6.50
2019-01-15T21:14:51.864Z,11.07
2019-01-15T21:17:32.704Z,15.13
2019-01-15T21:20:08.577Z,15.03
2019-01-15T21:22:48.710Z,10.97
2019-01-15T21:25:19.853Z,13.00
2019-01-15T21:27:53.529Z,19.87
2019-01-15T21:30:41.495Z,18.43
2019-01-15T21:33:16.180Z,17.33
2019-01-15T21:35:53.142Z,15.47
2019-01-15T21:38:27.096Z,24.33
2019-01-15T21:41:14.451Z,21.07
2019-01-15T21:43:48.039Z,29.97
2019-01-15T21:46:19.168Z,27.53
2019-01-15T21:48:52.809Z,31.80
2019-01-15T21:51:29.890Z,32.60
2019-01-15T21:54:01.057Z,36.73
2019-01-15T21:56:32.288Z,26.03
2019-01-15T21:59:03.542Z,35.07
2019-01-15T22:01:40.663Z,32.30
2019-01-15T22:04:17.262Z,42.73
2019-01-15T22:06:54.306Z,33.77
2019-01-15T22:09:31.043Z,42.43
2019-01-15T22:12:02.212Z,56.93
2019-01-15T22:14:50.050Z,38.00
2019-01-15T22:17:21.184Z,38.67
2019-01-15T22:19:55.001Z,35.77
2019-01-15T22:22:44.394Z,34.67
2019-01-15T22:25:21.239Z,34.53
2019-01-15T22:28:07.306Z,33.20
2019-01-15T22:30:38.453Z,34.90
2019-01-15T22:33:25.782Z,26.90
2019-01-15T22:36:02.884Z,39.47
2019-01-15T22:38:39.730Z,50.67
2019-01-15T22:41:23.192Z,45.77
2019-01-15T22:44:11.134Z,43.73
2019-01-15T22:46:45.173Z,38.53
2019-01-15T22:49:16.299Z,38.80
2019-01-15T22:52:05.509Z,47.13
2019-01-15T22:54:36.627Z,34.47
2019-01-15T22:57:26.153Z,33.63
2019-01-15T23:00:03.222Z,45.70
2019-01-15T23:02:34.422Z,34.03
2019-01-15T23:05:05.558Z,43.20
2019-01-15T23:07:42.601Z,36.17
2019-01-15T23:10:29.884Z,41.03
2019-01-15T23:13:01.148Z,47.73
2019-01-15T23:15:37.788Z,50.10
2019-01-15T23:18:08.958Z,31.73
2019-01-15T23:20:40.080Z,56.90
2019-01-15T23:23:27.614Z,37.87
2019-01-15T23:26:01.480Z,44.40
2019-01-15T23:28:35.076Z,45.90
2019-01-15T23:31:12.748Z,36.30
2019-01-15T23:33:49.704Z,41.97
2019-01-15T23:36:26.675Z,39.77
2019-01-15T23:39:14.132Z,36.43
2019-01-15T23:41:53.837Z,45.53
2019-01-15T23:44:41.079Z,43.87
2019-01-15T23:47:28.721Z,37.97
2019-01-15T23:50:05.602Z,33.17
2019-01-15T23:52:36.751Z,46.30
2019-01-15T23:55:07.998Z,45.00
2019-01-15T23:57:47.939Z,45.27
